createdAt,value
2023-04-26T00:00:33.853Z,3.90
2023-04-26T00:03:00.940Z,3.80
2023-04-26T00:05:29.586Z,3.67
2023-04-26T00:07:56.498Z,3.55
2023-04-26T00:10:23.137Z,4.00
2023-04-26T00:12:49.914Z,3.75
2023-04-26T00:15:16.560Z,4.35
2023-04-26T00:17:43.253Z,3.57
2023-04-26T00:20:12.232Z,5.25
2023-04-26T00:22:39.752Z,4.00
2023-04-26T00:25:06.722Z,3.20
2023-04-26T00:27:33.309Z,4.03
2023-04-26T00:29:59.926Z,3.80
2023-04-26T00:32:26.516Z,3.70
2023-04-26T00:34:53.185Z,3.70
2023-04-26T00:37:20.055Z,3.50
2023-04-26T00:39:46.771Z,4.20
2023-04-26T00:42:13.401Z,4.23
2023-04-26T00:44:40.477Z,4.57
2023-04-26T00:47:07.328Z,3.85
2023-04-26T00:49:33.944Z,4.05
2023-04-26T00:52:00.979Z,4.07
2023-04-26T00:54:28.672Z,3.70
2023-04-26T00:56:55.439Z,3.80
2023-04-26T00:59:22.410Z,4.28
2023-04-26T01:01:49.393Z,4.25
2023-04-26T01:04:16.656Z,4.20
2023-04-26T01:06:44.128Z,4.00
2023-04-26T01:09:14.664Z,3.97
2023-04-26T01:11:43.485Z,3.75
2023-04-26T01:14:10.851Z,3.50
2023-04-26T01:16:38.576Z,3.50
2023-04-26T01:19:15.230Z,3.47
2023-04-26T01:21:42.647Z,3.58
2023-04-26T01:24:13.571Z,3.60
2023-04-26T01:26:45.401Z,3.17
2023-04-26T01:29:22.159Z,3.50
2023-04-26T01:31:48.916Z,3.40
2023-04-26T01:34:15.952Z,3.33
2023-04-26T01:36:42.828Z,2.97
2023-04-26T01:39:09.531Z,3.40
2023-04-26T01:41:36.593Z,3.72
2023-04-26T01:44:03.466Z,3.70
2023-04-26T01:46:30.128Z,3.40
2023-04-26T01:48:57.295Z,3.70
2023-04-26T01:51:23.959Z,3.00
2023-04-26T01:53:51.079Z,3.15
2023-04-26T01:56:18.486Z,3.30
2023-04-26T01:58:45.389Z,3.10
2023-04-26T02:01:12.252Z,3.63
2023-04-26T02:03:39.192Z,3.42
2023-04-26T02:06:05.949Z,3.00
2023-04-26T02:08:32.645Z,3.07
2023-04-26T02:10:59.444Z,3.05
2023-04-26T02:13:26.267Z,3.45
2023-04-26T02:15:52.979Z,3.00
2023-04-26T02:18:21.984Z,3.22
2023-04-26T02:20:48.891Z,3.17
2023-04-26T02:23:15.866Z,3.58
2023-04-26T02:25:44.944Z,3.20
2023-04-26T02:28:11.668Z,3.20
2023-04-26T02:30:38.317Z,3.20
2023-04-26T02:33:05.034Z,3.17
2023-04-26T02:35:31.782Z,3.30
2023-04-26T02:37:58.412Z,3.55
2023-04-26T02:40:25.158Z,3.10
2023-04-26T02:42:51.870Z,3.30
2023-04-26T02:45:18.713Z,3.30
2023-04-26T02:47:45.405Z,3.42
2023-04-26T02:50:12.083Z,4.05
2023-04-26T02:52:38.853Z,3.65
2023-04-26T02:55:06.431Z,3.92
2023-04-26T02:57:33.423Z,4.40
2023-04-26T03:00:00.799Z,4.05
2023-04-26T03:02:27.628Z,4.40
2023-04-26T03:04:55.929Z,4.65
2023-04-26T03:07:22.837Z,5.20
2023-04-26T03:09:49.445Z,5.13
2023-04-26T03:12:16.552Z,5.35
2023-04-26T03:14:43.179Z,6.40
2023-04-26T03:17:09.804Z,6.90
2023-04-26T03:19:36.533Z,6.13
2023-04-26T03:22:03.259Z,6.30
2023-04-26T03:24:29.898Z,6.28
2023-04-26T03:26:56.584Z,6.90
2023-04-26T03:29:23.254Z,7.13
2023-04-26T03:31:49.877Z,7.07
2023-04-26T03:34:16.661Z,7.40
2023-04-26T03:36:43.357Z,8.13
2023-04-26T03:39:09.928Z,8.50
2023-04-26T03:41:39.378Z,7.93
2023-04-26T03:44:06.576Z,7.85
2023-04-26T03:46:33.254Z,7.80
2023-04-26T03:48:59.859Z,7.90
2023-04-26T03:51:28.201Z,7.85
2023-04-26T03:53:55.582Z,8.27
2023-04-26T03:56:22.370Z,7.57
2023-04-26T03:58:49.044Z,7.73
2023-04-26T04:01:15.923Z,7.47
2023-04-26T04:03:42.887Z,7.28
2023-04-26T04:06:09.664Z,7.07
2023-04-26T04:08:36.413Z,6.95
2023-04-26T04:11:02.967Z,6.87
2023-04-26T04:13:29.661Z,7.43
2023-04-26T04:15:56.292Z,7.13
2023-04-26T04:18:22.908Z,6.80
2023-04-26T04:20:49.566Z,6.90
2023-04-26T04:23:16.353Z,7.10
2023-04-26T04:25:43.982Z,6.03
2023-04-26T04:28:11.954Z,6.55
2023-04-26T04:30:38.586Z,6.32
2023-04-26T04:33:05.438Z,6.60
2023-04-26T04:35:34.135Z,6.03
2023-04-26T04:38:03.048Z,5.68
2023-04-26T04:40:30.441Z,5.97
2023-04-26T04:42:56.998Z,6.13
2023-04-26T04:45:23.811Z,5.15
2023-04-26T04:47:50.456Z,5.87
2023-04-26T04:50:17.718Z,6.13
2023-04-26T04:52:44.488Z,5.68
2023-04-26T04:55:11.175Z,5.07
2023-04-26T04:57:37.862Z,5.10
2023-04-26T05:00:10.367Z,5.20
2023-04-26T05:02:37.570Z,5.90
2023-04-26T05:05:05.285Z,5.75
2023-04-26T05:07:32.668Z,5.90
2023-04-26T05:10:00.035Z,5.93
2023-04-26T05:12:26.956Z,4.93
2023-04-26T05:14:53.574Z,5.88
2023-04-26T05:17:20.394Z,4.90
2023-04-26T05:19:47.299Z,4.90
2023-04-26T05:22:18.377Z,4.70
2023-04-26T05:24:48.644Z,5.63
2023-04-26T05:27:15.591Z,5.25
2023-04-26T05:29:42.190Z,5.13
2023-04-26T05:32:09.026Z,4.80
2023-04-26T05:34:36.669Z,4.53
2023-04-26T05:37:03.540Z,4.93
2023-04-26T05:39:30.536Z,4.45
2023-04-26T05:41:57.197Z,4.20
2023-04-26T05:44:23.820Z,4.20
2023-04-26T05:46:50.586Z,4.45
2023-04-26T05:49:17.287Z,4.47
2023-04-26T05:51:43.953Z,4.95
2023-04-26T05:54:10.532Z,4.38
2023-04-26T05:56:37.195Z,4.15
2023-04-26T05:59:03.821Z,4.65
2023-04-26T06:01:30.953Z,4.20
2023-04-26T06:04:00.619Z,4.60
2023-04-26T06:06:28.358Z,4.55
2023-04-26T06:08:55.535Z,4.75
2023-04-26T06:11:22.370Z,4.75
2023-04-26T06:13:48.978Z,4.40
2023-04-26T06:16:16.488Z,4.10
2023-04-26T06:18:43.818Z,3.90
2023-04-26T06:21:10.516Z,4.22
2023-04-26T06:23:37.127Z,4.20
2023-04-26T06:26:03.863Z,3.90
2023-04-26T06:28:30.920Z,3.88
2023-04-26T06:30:57.588Z,3.90
2023-04-26T06:33:24.280Z,3.80
2023-04-26T06:35:51.557Z,3.53
2023-04-26T06:38:18.253Z,3.50
2023-04-26T06:40:44.866Z,3.40
2023-04-26T06:43:11.504Z,3.60
2023-04-26T06:45:38.090Z,4.00
2023-04-26T06:48:05.266Z,3.53
2023-04-26T06:50:31.926Z,3.40
2023-04-26T06:52:58.555Z,3.70
2023-04-26T06:55:25.279Z,3.47
2023-04-26T06:57:51.856Z,3.35
2023-04-26T07:00:18.979Z,3.58
2023-04-26T07:02:46.047Z,3.30
2023-04-26T07:05:13.251Z,3.05
2023-04-26T07:07:39.894Z,3.08
2023-04-26T07:10:08.196Z,3.00
2023-04-26T07:12:34.849Z,2.78
2023-04-26T07:15:01.626Z,2.73
2023-04-26T07:17:28.365Z,2.28
2023-04-26T07:19:56.052Z,1.88
2023-04-26T07:22:22.926Z,1.83
2023-04-26T07:24:49.579Z,2.13
2023-04-26T07:27:16.324Z,2.13
2023-04-26T07:29:42.892Z,1.85
2023-04-26T07:32:09.940Z,2.60
2023-04-26T07:34:36.922Z,1.90
2023-04-26T07:37:04.427Z,2.28
2023-04-26T07:39:31.039Z,2.47
2023-04-26T07:41:57.610Z,2.10
2023-04-26T07:44:24.216Z,2.10
2023-04-26T07:46:51.557Z,1.83
2023-04-26T07:49:18.276Z,2.28
2023-04-26T07:51:45.797Z,2.17
2023-04-26T07:54:12.404Z,1.45
2023-04-26T07:56:39.031Z,1.40
2023-04-26T07:59:05.651Z,1.60
2023-04-26T08:01:32.410Z,1.85
2023-04-26T08:03:59.485Z,2.00
2023-04-26T08:06:27.699Z,1.63
2023-04-26T08:08:54.501Z,1.40
2023-04-26T08:11:21.781Z,1.55
2023-04-26T08:13:48.617Z,1.63
2023-04-26T08:16:15.522Z,1.37
2023-04-26T08:18:43.991Z,1.65
2023-04-26T08:21:12.039Z,1.33
2023-04-26T08:23:38.657Z,1.48
2023-04-26T08:26:06.388Z,1.67
2023-04-26T08:28:33.118Z,1.67
2023-04-26T08:30:59.813Z,1.50
2023-04-26T08:33:26.501Z,1.30
2023-04-26T08:35:53.272Z,1.35
2023-04-26T08:38:22.446Z,1.40
2023-04-26T08:40:49.169Z,1.47
2023-04-26T08:43:19.058Z,1.30
2023-04-26T08:45:49.014Z,1.40
2023-04-26T08:48:18.066Z,1.52
2023-04-26T08:50:46.629Z,1.60
2023-04-26T08:53:17.626Z,2.30
2023-04-26T08:55:50.930Z,2.10
2023-04-26T08:58:18.669Z,1.60
2023-04-26T09:00:46.021Z,1.60
2023-04-26T09:03:12.993Z,1.60
2023-04-26T09:05:43.940Z,1.67
2023-04-26T09:08:16.087Z,1.60
2023-04-26T09:10:42.791Z,1.58
2023-04-26T09:13:09.480Z,1.27
2023-04-26T09:15:36.193Z,1.35
2023-04-26T09:18:23.011Z,1.53
2023-04-26T09:21:17.833Z,1.50
2023-04-26T09:24:04.695Z,1.20
2023-04-26T09:26:31.309Z,1.83
2023-04-26T09:29:15.416Z,1.52
2023-04-26T09:31:49.586Z,1.70
2023-04-26T09:34:16.782Z,1.42
2023-04-26T09:36:56.919Z,1.50
2023-04-26T09:39:41.317Z,1.40
2023-04-26T09:42:09.012Z,1.60
2023-04-26T09:44:35.990Z,1.47
2023-04-26T09:47:10.557Z,1.55
2023-04-26T09:49:50.171Z,1.42
2023-04-26T09:52:18.351Z,1.30
2023-04-26T09:54:46.130Z,1.77
2023-04-26T09:57:14.430Z,1.60
2023-04-26T09:59:47.669Z,1.83
2023-04-26T10:02:19.681Z,1.42
2023-04-26T10:04:50.771Z,1.90
2023-04-26T10:07:20.478Z,1.50
2023-04-26T10:09:47.766Z,1.40
2023-04-26T10:12:16.734Z,1.48
2023-04-26T10:14:46.425Z,1.30
2023-04-26T10:17:13.910Z,1.50
2023-04-26T10:19:46.527Z,1.25
2023-04-26T10:22:25.844Z,1.30
2023-04-26T10:24:54.171Z,1.45
2023-04-26T10:27:42.642Z,1.10
2023-04-26T10:30:16.952Z,1.30
2023-04-26T10:32:53.044Z,1.60
2023-04-26T10:35:20.167Z,1.87
2023-04-26T10:38:02.123Z,2.00
2023-04-26T10:40:33.572Z,1.98
2023-04-26T10:43:29.644Z,1.63
2023-04-26T10:45:56.952Z,1.70
2023-04-26T10:48:30.769Z,1.77
2023-04-26T10:51:08.356Z,1.88
2023-04-26T10:53:55.138Z,2.00
2023-04-26T10:56:28.232Z,1.80
2023-04-26T10:59:43.784Z,1.70
2023-04-26T11:02:14.047Z,1.27
2023-04-26T11:04:53.135Z,1.45
2023-04-26T11:07:42.558Z,1.58
2023-04-26T11:10:23.184Z,1.40
2023-04-26T11:13:01.131Z,1.35
2023-04-26T11:15:27.807Z,1.33
2023-04-26T11:17:54.456Z,1.30
2023-04-26T11:20:21.191Z,1.70
2023-04-26T11:22:47.940Z,1.50
2023-04-26T11:25:14.843Z,1.60
2023-04-26T11:27:44.423Z,1.37
2023-04-26T11:30:12.369Z,1.23
2023-04-26T11:32:39.042Z,1.25
2023-04-26T11:35:06.038Z,1.35
2023-04-26T11:37:34.646Z,1.40
2023-04-26T11:40:01.290Z,1.47
2023-04-26T11:42:27.904Z,1.63
2023-04-26T11:44:59.272Z,1.60
2023-04-26T11:47:30.660Z,1.50
2023-04-26T11:49:57.485Z,1.52
2023-04-26T11:52:24.610Z,1.93
2023-04-26T11:55:06.131Z,2.50
2023-04-26T11:57:36.097Z,1.90
2023-04-26T12:00:14.745Z,1.77
2023-04-26T12:02:46.652Z,1.60
2023-04-26T12:05:26.343Z,1.57
2023-04-26T12:07:58.109Z,1.80
2023-04-26T12:10:33.954Z,1.55
2023-04-26T12:13:01.027Z,1.20
2023-04-26T12:15:32.746Z,1.52
2023-04-26T12:18:11.245Z,1.70
2023-04-26T12:20:40.598Z,1.90
2023-04-26T12:23:09.724Z,1.70
2023-04-26T12:25:38.280Z,1.40
2023-04-26T12:28:08.268Z,1.42
2023-04-26T12:30:34.849Z,1.90
2023-04-26T12:33:15.611Z,1.40
2023-04-26T12:35:43.595Z,1.73
2023-04-26T12:38:10.626Z,1.40
2023-04-26T12:40:37.559Z,1.20
2023-04-26T12:43:04.159Z,1.60
2023-04-26T12:45:30.826Z,2.00
2023-04-26T12:47:57.524Z,1.77
2023-04-26T12:50:24.552Z,2.20
2023-04-26T12:52:51.197Z,1.70
2023-04-26T12:55:18.812Z,1.80
2023-04-26T12:57:46.008Z,1.80
2023-04-26T13:00:15.317Z,1.70
2023-04-26T13:02:42.207Z,1.60
2023-04-26T13:05:09.793Z,1.77
2023-04-26T13:07:40.897Z,1.80
2023-04-26T13:10:09.181Z,2.00
2023-04-26T13:12:38.549Z,1.90
2023-04-26T13:15:07.913Z,2.03
2023-04-26T13:17:37.094Z,1.60
2023-04-26T13:20:05.963Z,2.20
2023-04-26T13:22:32.822Z,1.60
2023-04-26T13:24:59.454Z,1.90
2023-04-26T13:27:28.445Z,2.20
2023-04-26T13:29:57.158Z,2.05
2023-04-26T13:32:23.895Z,2.57
2023-04-26T13:34:51.676Z,2.03
2023-04-26T13:37:21.124Z,1.83
2023-04-26T13:39:48.179Z,2.20
2023-04-26T13:42:16.250Z,1.95
2023-04-26T13:44:42.989Z,1.93
2023-04-26T13:47:09.622Z,1.98
2023-04-26T13:49:36.747Z,2.20
2023-04-26T13:52:03.624Z,1.80
2023-04-26T13:54:30.477Z,2.40
2023-04-26T13:56:58.217Z,2.37
2023-04-26T13:59:24.880Z,1.75
2023-04-26T14:01:54.283Z,2.22
2023-04-26T14:04:21.961Z,2.13
2023-04-26T14:06:48.811Z,1.73
2023-04-26T14:09:16.115Z,2.00
2023-04-26T14:11:42.731Z,1.95
2023-04-26T14:14:09.412Z,2.03
2023-04-26T14:16:36.353Z,2.00
2023-04-26T14:19:03.051Z,1.88
2023-04-26T14:21:29.725Z,1.60
2023-04-26T14:23:56.525Z,1.50
2023-04-26T14:26:26.076Z,2.15
2023-04-26T14:28:52.873Z,2.17
2023-04-26T14:31:19.738Z,2.05
2023-04-26T14:33:46.682Z,2.00
2023-04-26T14:36:13.256Z,1.98
2023-04-26T14:38:43.770Z,1.60
2023-04-26T14:41:15.413Z,1.60
2023-04-26T14:43:42.794Z,1.83
2023-04-26T14:46:09.456Z,1.70
2023-04-26T14:48:36.108Z,1.83
2023-04-26T14:51:02.737Z,1.90
2023-04-26T14:53:29.361Z,1.73
2023-04-26T14:55:57.396Z,1.95
2023-04-26T14:58:24.775Z,1.80
2023-04-26T15:00:53.535Z,1.83
2023-04-26T15:03:21.009Z,2.22
2023-04-26T15:05:47.765Z,2.20
2023-04-26T15:08:14.462Z,1.65
2023-04-26T15:10:41.040Z,2.37
2023-04-26T15:13:07.732Z,1.70
2023-04-26T15:15:34.419Z,1.60
2023-04-26T15:18:01.893Z,1.85
2023-04-26T15:20:28.617Z,1.80
2023-04-26T15:22:55.277Z,2.70
2023-04-26T15:25:21.948Z,2.05
2023-04-26T15:27:50.259Z,1.55
2023-04-26T15:30:17.180Z,2.38
2023-04-26T15:32:47.814Z,1.92
2023-04-26T15:35:15.635Z,1.60
2023-04-26T15:37:43.918Z,1.75
2023-04-26T15:40:11.048Z,2.10
2023-04-26T15:42:37.658Z,1.92
2023-04-26T15:45:05.315Z,1.90
2023-04-26T15:47:32.004Z,1.60
2023-04-26T15:50:06.438Z,1.83
2023-04-26T15:52:38.842Z,2.25
2023-04-26T15:55:09.816Z,1.67
2023-04-26T15:57:36.903Z,1.90
2023-04-26T16:00:05.875Z,1.53
2023-04-26T16:02:32.551Z,1.83
2023-04-26T16:04:59.446Z,1.67
2023-04-26T16:07:26.426Z,1.58
2023-04-26T16:09:53.151Z,1.55
2023-04-26T16:12:20.163Z,1.60
2023-04-26T16:14:46.820Z,1.80
2023-04-26T16:17:13.647Z,1.80
2023-04-26T16:19:40.345Z,1.60
2023-04-26T16:22:08.034Z,2.00
2023-04-26T16:24:34.640Z,1.80
2023-04-26T16:27:01.322Z,2.25
2023-04-26T16:29:27.911Z,2.00
2023-04-26T16:31:54.562Z,1.60
2023-04-26T16:34:21.810Z,2.13
2023-04-26T16:36:48.398Z,1.70
2023-04-26T16:39:16.141Z,2.03
2023-04-26T16:41:43.118Z,2.00
2023-04-26T16:44:10.092Z,2.10
2023-04-26T16:46:37.196Z,2.28
2023-04-26T16:49:09.910Z,1.87
2023-04-26T16:51:37.915Z,2.00
2023-04-26T16:54:04.621Z,2.20
2023-04-26T16:56:32.121Z,2.30
2023-04-26T16:58:59.420Z,1.60
2023-04-26T17:01:26.289Z,1.83
2023-04-26T17:03:53.241Z,2.00
2023-04-26T17:06:20.380Z,1.73
2023-04-26T17:08:47.386Z,2.10
2023-04-26T17:11:15.446Z,1.90
2023-04-26T17:13:42.407Z,1.80
2023-04-26T17:16:09.433Z,2.45
2023-04-26T17:18:37.158Z,1.90
2023-04-26T17:21:05.338Z,1.95
2023-04-26T17:23:33.527Z,2.00
2023-04-26T17:26:01.244Z,1.97
2023-04-26T17:28:28.433Z,1.92
2023-04-26T17:30:55.048Z,1.98
2023-04-26T17:33:21.754Z,1.88
2023-04-26T17:35:48.654Z,2.17
2023-04-26T17:38:15.841Z,2.03
2023-04-26T17:40:42.535Z,2.05
2023-04-26T17:43:09.244Z,2.20
2023-04-26T17:45:35.938Z,1.63
2023-04-26T17:48:02.988Z,1.95
2023-04-26T17:50:30.294Z,1.97
2023-04-26T17:52:56.959Z,1.90
2023-04-26T17:55:23.592Z,2.17
2023-04-26T17:57:50.186Z,1.85
2023-04-26T18:00:17.425Z,1.80
2023-04-26T18:02:44.416Z,1.87
2023-04-26T18:05:11.343Z,1.80
2023-04-26T18:07:38.585Z,1.80
2023-04-26T18:10:06.483Z,2.17
2023-04-26T18:12:33.216Z,1.75
2023-04-26T18:14:59.830Z,2.00
2023-04-26T18:17:26.769Z,2.00
2023-04-26T18:19:53.465Z,1.67
2023-04-26T18:22:20.333Z,2.13
2023-04-26T18:24:46.969Z,2.63
2023-04-26T18:27:14.039Z,2.17
2023-04-26T18:29:41.039Z,1.92
2023-04-26T18:32:07.775Z,1.70
2023-04-26T18:34:34.371Z,2.60
2023-04-26T18:37:01.029Z,2.20
2023-04-26T18:39:27.590Z,2.10
2023-04-26T18:41:54.198Z,2.17
2023-04-26T18:44:20.957Z,1.83
2023-04-26T18:46:47.649Z,1.77
2023-04-26T18:49:14.374Z,2.30
2023-04-26T18:51:41.029Z,2.17
2023-04-26T18:54:07.636Z,1.90
2023-04-26T18:56:34.264Z,2.25
2023-04-26T18:59:00.822Z,2.05
2023-04-26T19:01:27.668Z,2.13
2023-04-26T19:03:54.602Z,1.93
2023-04-26T19:06:21.425Z,2.17
2023-04-26T19:08:48.123Z,2.15
2023-04-26T19:11:14.754Z,2.05
2023-04-26T19:13:41.555Z,2.10
2023-04-26T19:16:09.018Z,1.93
2023-04-26T19:18:36.967Z,1.77
2023-04-26T19:21:08.230Z,2.53
2023-04-26T19:23:35.799Z,1.80
2023-04-26T19:26:08.075Z,2.05
2023-04-26T19:28:35.710Z,2.07
2023-04-26T19:31:02.370Z,1.70
2023-04-26T19:33:29.404Z,2.08
2023-04-26T19:35:56.678Z,1.80
2023-04-26T19:38:24.874Z,2.17
2023-04-26T19:40:54.381Z,2.40
2023-04-26T19:43:21.044Z,2.20
2023-04-26T19:45:48.040Z,2.35
2023-04-26T19:48:14.850Z,2.40
2023-04-26T19:50:43.778Z,2.80
2023-04-26T19:53:11.544Z,2.37
2023-04-26T19:55:38.749Z,2.63
2023-04-26T19:58:06.790Z,2.45
2023-04-26T20:00:35.982Z,2.38
2023-04-26T20:03:03.217Z,2.30
2023-04-26T20:05:30.322Z,2.67
2023-04-26T20:07:57.480Z,2.60
2023-04-26T20:10:24.598Z,3.00
2023-04-26T20:12:51.734Z,2.88
2023-04-26T20:15:18.536Z,2.90
2023-04-26T20:17:45.263Z,2.50
2023-04-26T20:20:12.580Z,2.63
2023-04-26T20:22:40.160Z,2.47
2023-04-26T20:25:07.323Z,2.55
2023-04-26T20:27:34.306Z,2.60
2023-04-26T20:30:01.479Z,2.23
2023-04-26T20:32:28.226Z,2.03
2023-04-26T20:34:54.943Z,2.03
2023-04-26T20:37:21.936Z,2.50
2023-04-26T20:39:48.972Z,2.33
2023-04-26T20:42:15.998Z,2.53
2023-04-26T20:44:42.869Z,2.10
2023-04-26T20:47:09.533Z,2.65
2023-04-26T20:49:36.303Z,2.30
2023-04-26T20:52:03.042Z,2.70
2023-04-26T20:54:29.706Z,2.80
2023-04-26T20:56:56.443Z,2.38
2023-04-26T20:59:25.153Z,2.40
2023-04-26T21:01:53.253Z,2.30
2023-04-26T21:04:20.250Z,2.88
2023-04-26T21:06:47.148Z,2.30
2023-04-26T21:09:13.709Z,2.50
2023-04-26T21:11:40.510Z,2.33
2023-04-26T21:14:07.154Z,2.67
2023-04-26T21:16:33.896Z,2.65
2023-04-26T21:19:00.610Z,2.40
2023-04-26T21:21:28.638Z,2.42
2023-04-26T21:23:55.509Z,2.10
2023-04-26T21:26:22.197Z,2.63
2023-04-26T21:28:48.920Z,2.50
2023-04-26T21:31:15.770Z,3.50
2023-04-26T21:33:42.461Z,2.40
2023-04-26T21:36:09.271Z,2.28
2023-04-26T21:38:36.127Z,2.47
2023-04-26T21:41:02.943Z,2.63
2023-04-26T21:43:29.647Z,2.20
2023-04-26T21:45:57.992Z,2.58
2023-04-26T21:48:26.142Z,2.67
2023-04-26T21:50:52.852Z,2.85
2023-04-26T21:53:19.468Z,2.47
2023-04-26T21:55:53.689Z,2.63
2023-04-26T21:58:21.290Z,2.40
2023-04-26T22:00:48.685Z,2.75
2023-04-26T22:03:16.100Z,2.92
2023-04-26T22:05:42.968Z,3.15
2023-04-26T22:08:09.631Z,3.10
2023-04-26T22:10:36.425Z,3.05
2023-04-26T22:13:03.274Z,3.13
2023-04-26T22:15:30.016Z,3.22
2023-04-26T22:17:56.724Z,3.20
2023-04-26T22:20:23.444Z,3.20
2023-04-26T22:22:50.120Z,3.33
2023-04-26T22:25:16.777Z,3.28
2023-04-26T22:27:43.410Z,3.10
2023-04-26T22:30:23.908Z,2.95
2023-04-26T22:32:54.698Z,3.43
2023-04-26T22:35:22.429Z,3.10
2023-04-26T22:37:49.241Z,3.10
2023-04-26T22:40:16.111Z,3.45
2023-04-26T22:42:43.479Z,3.20
2023-04-26T22:45:11.577Z,3.30
2023-04-26T22:47:38.820Z,3.20
2023-04-26T22:50:06.216Z,3.35
2023-04-26T22:52:33.210Z,3.08
2023-04-26T22:55:00.596Z,3.50
2023-04-26T22:57:28.253Z,3.50
2023-04-26T22:59:54.934Z,3.28
2023-04-26T23:02:21.719Z,3.28
2023-04-26T23:04:48.448Z,3.60
2023-04-26T23:07:15.069Z,3.72
2023-04-26T23:09:41.774Z,3.30
2023-04-26T23:12:08.433Z,3.38
2023-04-26T23:14:35.150Z,3.63
2023-04-26T23:17:02.649Z,3.58
2023-04-26T23:19:29.419Z,4.22
2023-04-26T23:21:56.255Z,3.27
2023-04-26T23:24:22.916Z,4.32
2023-04-26T23:26:49.539Z,4.00
2023-04-26T23:29:16.163Z,4.03
2023-04-26T23:31:43.019Z,4.20
2023-04-26T23:34:09.679Z,4.40
2023-04-26T23:36:36.464Z,4.55
2023-04-26T23:39:03.700Z,4.30
2023-04-26T23:41:30.898Z,4.53
2023-04-26T23:43:57.580Z,4.68
2023-04-26T23:46:24.310Z,4.27
2023-04-26T23:48:51.078Z,4.55
2023-04-26T23:51:17.678Z,5.07
2023-04-26T23:53:44.898Z,5.10
2023-04-26T23:56:11.676Z,4.40
2023-04-26T23:58:38.346Z,5.60
